Time;durP1;ratioP1;P1;durP2;ratioP2;P2;SDS_P1;SDS_P2;PMS_P1;PMS_P2;Temp;Humidity;BMP_temperature;BMP_pressure;BME280_temperature;BME280_humidity;BME280_pressure;Samples;Min_cycle;Max_cycle;Signal;HPM_P1;HPM_P2
2022/03/26 00:01:46;;;;;;;20.17;10.98;;;14.90;56.20;;;;;;5054001;28;20476;-88
2022/03/26 00:04:12;;;;;;;19.13;10.85;;;15.00;56.00;;;;;;5054594;28;20110;-87
2022/03/26 00:06:38;;;;;;;16.10;8.95;;;15.00;55.50;;;;;;5054268;28;20021;-88
2022/03/26 00:09:04;;;;;;;12.68;7.78;;;15.00;55.70;;;;;;5054028;28;20048;-88
2022/03/26 00:11:30;;;;;;;19.35;9.30;;;15.20;56.00;;;;;;5054525;28;20097;-87
2022/03/26 00:13:55;;;;;;;24.15;13.23;;;15.20;55.80;;;;;;5054217;28;20029;-86
2022/03/26 00:16:21;;;;;;;22.20;11.00;;;15.20;54.50;;;;;;5054005;28;20041;-87
2022/03/26 00:18:47;;;;;;;20.35;10.60;;;15.10;55.20;;;;;;5053986;28;20052;-87
2022/03/26 00:21:12;;;;;;;29.55;12.43;;;15.10;55.30;;;;;;5054367;28;20041;-87
2022/03/26 00:23:38;;;;;;;21.15;9.32;;;15.20;55.30;;;;;;5053939;28;20039;-88
2022/03/26 00:26:04;;;;;;;21.02;10.90;;;15.20;55.30;;;;;;5054293;28;20414;-87
2022/03/26 00:28:29;;;;;;;16.65;9.20;;;15.20;55.20;;;;;;5053616;28;20025;-87
2022/03/26 00:30:55;;;;;;;20.15;10.07;;;15.10;55.60;;;;;;5053392;28;20112;-87
2022/03/26 00:33:21;;;;;;;21.33;10.30;;;15.10;55.50;;;;;;5053696;28;20036;-87
2022/03/26 00:35:47;;;;;;;16.92;9.40;;;15.20;55.30;;;;;;5054043;28;20017;-87
2022/03/26 00:38:13;;;;;;;17.33;8.70;;;15.10;55.50;;;;;;5053738;28;20045;-88
2022/03/26 00:40:40;;;;;;;15.93;8.85;;;15.20;55.80;;;;;;5053537;28;20071;-87
2022/03/26 00:43:06;;;;;;;19.67;10.85;;;15.20;56.00;;;;;;5053260;28;20486;-87
2022/03/26 00:45:34;;;;;;;17.15;9.18;;;15.20;55.10;;;;;;5053742;28;20025;-87
2022/03/26 00:48:01;;;;;;;28.70;12.75;;;15.30;55.60;;;;;;5053286;28;20059;-87
2022/03/26 00:50:27;;;;;;;20.95;9.90;;;15.10;54.30;;;;;;5053403;28;20538;-87
2022/03/26 00:52:52;;;;;;;28.75;13.52;;;15.00;55.50;;;;;;5053439;28;20029;-87
2022/03/26 00:55:18;;;;;;;31.77;12.27;;;15.00;54.90;;;;;;5053646;28;20067;-87
2022/03/26 00:57:44;;;;;;;21.63;11.70;;;14.80;54.60;;;;;;5053455;28;20036;-87
2022/03/26 01:00:12;;;;;;;31.48;13.60;;;14.70;55.30;;;;;;5053024;28;20033;-87
2022/03/26 01:02:37;;;;;;;26.80;11.90;;;14.60;55.30;;;;;;5053680;28;20079;-87
2022/03/26 01:05:04;;;;;;;32.03;14.48;;;14.30;55.80;;;;;;5053162;28;20021;-87
2022/03/26 01:07:30;;;;;;;32.72;15.00;;;14.00;56.00;;;;;;5052873;28;20036;-87
2022/03/26 01:09:56;;;;;;;28.27;14.68;;;13.70;56.90;;;;;;5052997;28;20033;-88
2022/03/26 01:12:22;;;;;;;25.38;13.70;;;13.50;57.50;;;;;;5052809;28;20032;-88
2022/03/26 01:14:49;;;;;;;32.67;15.65;;;13.40;57.90;;;;;;5053097;28;20029;-88
2022/03/26 01:17:15;;;;;;;31.85;14.25;;;13.20;58.10;;;;;;5052973;28;20112;-87
2022/03/26 01:19:40;;;;;;;26.75;14.60;;;13.00;58.50;;;;;;5052830;28;20024;-86
2022/03/26 01:22:06;;;;;;;18.50;11.35;;;13.00;58.90;;;;;;5052797;28;20384;-87
2022/03/26 01:24:32;;;;;;;22.73;12.77;;;13.10;59.30;;;;;;5053177;28;20078;-87
2022/03/26 01:26:57;;;;;;;20.10;9.85;;;13.30;59.10;;;;;;5052887;28;20464;-86
2022/03/26 01:29:23;;;;;;;28.08;14.00;;;13.50;59.20;;;;;;5053160;28;20021;-87
2022/03/26 01:31:49;;;;;;;31.75;15.57;;;13.60;58.20;;;;;;5052431;28;20431;-87
2022/03/26 01:34:15;;;;;;;23.33;14.60;;;13.60;57.80;;;;;;5052619;28;20029;-87
2022/03/26 01:36:41;;;;;;;24.08;13.75;;;13.40;57.90;;;;;;5052936;28;20040;-87
2022/03/26 01:39:07;;;;;;;29.73;14.70;;;13.40;58.50;;;;;;5052951;28;20039;-86
2022/03/26 01:41:33;;;;;;;31.58;14.90;;;13.50;58.30;;;;;;5052842;28;20017;-87
2022/03/26 01:44:00;;;;;;;28.40;14.35;;;13.30;57.90;;;;;;5052812;28;20044;-88
2022/03/26 01:46:26;;;;;;;32.10;15.82;;;12.90;59.10;;;;;;5053026;28;20028;-87
2022/03/26 01:48:52;;;;;;;23.58;12.40;;;12.80;59.00;;;;;;5052531;28;20506;-88
2022/03/26 01:51:19;;;;;;;25.52;13.57;;;12.70;59.30;;;;;;5052667;28;20025;-88
2022/03/26 01:53:50;;;;;;;26.17;13.73;;;12.80;60.40;;;;;;5052854;28;20029;-86
2022/03/26 01:56:17;;;;;;;28.10;16.15;;;12.90;59.20;;;;;;5052440;28;20505;-87
2022/03/26 01:58:44;;;;;;;24.77;14.20;;;12.90;59.50;;;;;;5052350;28;20073;-88
2022/03/26 02:01:09;;;;;;;24.65;12.85;;;13.00;59.50;;;;;;5052663;28;20495;-88
2022/03/26 02:03:35;;;;;;;29.02;15.55;;;13.00;59.40;;;;;;5052706;28;20033;-88
2022/03/26 02:06:01;;;;;;;29.60;16.00;;;13.10;58.70;;;;;;5052697;28;20025;-88
2022/03/26 02:08:27;;;;;;;34.83;16.65;;;12.90;58.90;;;;;;5052125;28;20044;-87
2022/03/26 02:10:53;;;;;;;31.83;17.23;;;12.70;59.40;;;;;;5052718;28;20025;-88
2022/03/26 02:13:19;;;;;;;31.95;17.42;;;12.70;59.50;;;;;;5052489;28;20056;-88
2022/03/26 02:15:44;;;;;;;30.65;16.70;;;12.70;59.30;;;;;;5052719;28;20036;-88
2022/03/26 02:18:10;;;;;;;31.55;16.45;;;12.70;59.60;;;;;;5052202;28;20074;-88
2022/03/26 02:20:37;;;;;;;33.70;16.98;;;12.60;59.40;;;;;;5052323;28;20057;-87
2022/03/26 02:23:03;;;;;;;33.85;16.92;;;12.70;59.70;;;;;;5052784;28;20029;-87
2022/03/26 02:25:29;;;;;;;28.95;15.55;;;12.70;59.50;;;;;;5056602;28;20103;-86
2022/03/26 02:27:54;;;;;;;35.72;15.25;;;12.80;59.60;;;;;;5056292;28;20123;-86
2022/03/26 02:30:20;;;;;;;36.88;18.50;;;12.90;59.50;;;;;;5056146;28;20032;-85
2022/03/26 02:32:46;;;;;;;29.13;15.40;;;12.80;58.60;;;;;;5055969;28;20516;-87
2022/03/26 02:35:12;;;;;;;27.40;14.18;;;12.70;58.90;;;;;;5056213;28;20028;-86
2022/03/26 02:37:38;;;;;;;26.20;12.95;;;12.80;59.80;;;;;;5056114;28;20115;-87
2022/03/26 02:40:07;;;;;;;25.38;13.70;;;13.00;59.80;;;;;;5056019;28;20077;-87
2022/03/26 02:42:33;;;;;;;29.67;18.27;;;13.10;59.90;;;;;;5054494;28;20036;-87
2022/03/26 02:44:59;;;;;;;32.22;17.88;;;13.20;58.10;;;;;;5055998;28;20036;-87
2022/03/26 02:47:25;;;;;;;34.70;17.33;;;13.10;58.10;;;;;;5055895;28;20037;-87
2022/03/26 02:49:51;;;;;;;36.25;18.33;;;13.20;58.40;;;;;;5055817;28;20044;-86
2022/03/26 02:52:16;;;;;;;25.45;13.50;;;13.10;57.80;;;;;;5055700;28;20033;-87
2022/03/26 02:54:42;;;;;;;29.90;15.68;;;13.20;58.70;;;;;;5055798;28;20029;-87
2022/03/26 02:57:08;;;;;;;31.83;16.35;;;13.30;58.60;;;;;;5055598;28;20065;-86
2022/03/26 02:59:34;;;;;;;28.30;16.00;;;13.50;58.30;;;;;;5055428;28;20027;-86
2022/03/26 03:01:59;;;;;;;26.90;15.40;;;13.50;58.00;;;;;;5055282;28;20029;-86
2022/03/26 03:04:25;;;;;;;34.00;17.55;;;13.50;57.70;;;;;;5055695;28;20017;-87
2022/03/26 03:06:51;;;;;;;33.75;17.77;;;13.60;57.40;;;;;;5055345;28;20486;-85
2022/03/26 03:09:17;;;;;;;30.73;15.95;;;13.50;57.20;;;;;;5054953;28;20045;-86
2022/03/26 03:11:43;;;;;;;33.55;16.92;;;13.50;57.80;;;;;;5055419;28;20033;-87
2022/03/26 03:14:10;;;;;;;34.60;19.58;;;13.60;57.40;;;;;;5054966;28;20028;-87
2022/03/26 03:16:37;;;;;;;38.17;20.55;;;13.50;56.70;;;;;;5055320;28;20040;-85
2022/03/26 03:19:05;;;;;;;34.78;19.02;;;13.40;56.60;;;;;;5055535;28;20059;-86
2022/03/26 03:21:31;;;;;;;31.75;17.35;;;13.20;57.00;;;;;;5055039;28;20028;-86
2022/03/26 03:23:57;;;;;;;24.25;13.75;;;13.20;57.40;;;;;;5055520;28;20025;-87
2022/03/26 03:26:22;;;;;;;22.20;11.85;;;13.20;58.00;;;;;;5055108;28;20028;-87
2022/03/26 03:28:48;;;;;;;29.60;17.00;;;13.40;58.40;;;;;;5055001;28;20361;-86
2022/03/26 03:31:14;;;;;;;39.17;21.27;;;13.50;57.40;;;;;;5054507;28;20385;-86
2022/03/26 03:33:39;;;;;;;41.60;21.48;;;13.50;56.80;;;;;;5055121;28;20025;-87
2022/03/26 03:36:05;;;;;;;36.53;20.63;;;13.40;56.80;;;;;;5053706;28;20040;-87
2022/03/26 03:38:32;;;;;;;37.38;20.92;;;13.30;56.70;;;;;;5054902;28;20131;-87
2022/03/26 03:40:57;;;;;;;36.65;20.08;;;13.00;56.70;;;;;;5054482;28;20465;-87
2022/03/26 03:43:24;;;;;;;38.63;19.95;;;12.80;57.60;;;;;;5054675;28;20036;-87
2022/03/26 03:45:50;;;;;;;35.63;18.90;;;12.60;58.00;;;;;;5054920;28;20082;-87
2022/03/26 03:48:15;;;;;;;36.97;18.35;;;12.60;58.20;;;;;;5054780;28;20725;-87
2022/03/26 03:50:41;;;;;;;40.92;19.83;;;12.70;58.80;;;;;;5054623;28;20396;-87
2022/03/26 03:53:07;;;;;;;33.17;19.67;;;12.70;58.40;;;;;;5054787;28;20025;-87
2022/03/26 03:55:33;;;;;;;33.75;17.52;;;12.70;58.40;;;;;;5054697;28;20086;-87
2022/03/26 03:57:58;;;;;;;26.80;16.35;;;12.90;58.90;;;;;;5054294;28;20447;-87
2022/03/26 04:00:24;;;;;;;34.63;18.85;;;13.00;58.80;;;;;;5054295;28;20059;-87
2022/03/26 04:02:49;;;;;;;22.90;13.20;;;13.20;58.70;;;;;;5054999;28;20086;-87
2022/03/26 04:05:15;;;;;;;26.73;14.35;;;13.30;58.80;;;;;;5053847;28;20488;-87
2022/03/26 04:07:41;;;;;;;31.48;17.27;;;13.60;59.00;;;;;;5054310;28;20051;-87
2022/03/26 04:10:09;;;;;;;37.40;19.52;;;13.70;58.20;;;;;;5053894;28;20502;-85
2022/03/26 04:12:36;;;;;;;27.23;16.60;;;13.80;57.60;;;;;;5049094;28;20034;-86
2022/03/26 04:15:03;;;;;;;31.83;15.93;;;13.80;57.40;;;;;;5052842;28;20419;-87
2022/03/26 04:17:30;;;;;;;38.33;20.55;;;13.80;57.20;;;;;;5054077;28;20041;-86
2022/03/26 04:19:56;;;;;;;36.28;19.33;;;13.90;57.30;;;;;;5053975;28;20032;-86
2022/03/26 04:22:21;;;;;;;25.65;15.68;;;13.90;57.30;;;;;;5054282;28;20029;-86
2022/03/26 04:24:47;;;;;;;32.47;18.08;;;13.90;57.40;;;;;;5054133;28;20021;-85
2022/03/26 04:27:12;;;;;;;31.67;17.73;;;14.00;57.50;;;;;;5053917;28;20032;-86
2022/03/26 04:29:38;;;;;;;31.88;17.92;;;14.10;57.30;;;;;;5054224;28;20578;-86
2022/03/26 04:32:04;;;;;;;35.72;22.13;;;14.10;57.70;;;;;;5053991;28;20043;-86
2022/03/26 04:34:30;;;;;;;40.15;23.65;;;14.10;57.20;;;;;;5053629;28;20032;-86
2022/03/26 04:36:56;;;;;;;40.03;23.27;;;14.00;57.10;;;;;;5054291;28;20041;-86
2022/03/26 04:39:21;;;;;;;39.92;22.80;;;14.00;57.10;;;;;;5053920;28;20546;-85
2022/03/26 04:41:47;;;;;;;34.38;20.83;;;14.00;57.00;;;;;;5054159;28;20025;-88
2022/03/26 04:44:13;;;;;;;37.70;21.35;;;14.00;57.00;;;;;;5053488;28;20446;-87
2022/03/26 04:46:39;;;;;;;35.05;21.95;;;14.10;57.00;;;;;;5053272;28;20028;-87
2022/03/26 04:49:05;;;;;;;34.05;20.45;;;14.10;57.00;;;;;;5053528;28;20116;-87
2022/03/26 04:51:30;;;;;;;37.30;22.58;;;14.10;57.20;;;;;;5053986;28;20052;-87
2022/03/26 04:53:56;;;;;;;41.75;25.02;;;14.10;57.30;;;;;;5053382;28;20108;-87
2022/03/26 04:56:21;;;;;;;33.95;19.92;;;14.10;57.20;;;;;;5053553;28;20032;-87
2022/03/26 04:58:48;;;;;;;33.08;21.33;;;14.10;57.40;;;;;;5052985;28;20051;-87
2022/03/26 05:01:15;;;;;;;39.22;23.60;;;14.20;57.50;;;;;;5053633;28;20100;-87
2022/03/26 05:03:42;;;;;;;33.47;21.40;;;14.20;57.30;;;;;;5052930;28;20029;-88
2022/03/26 05:06:07;;;;;;;38.13;23.48;;;14.20;57.40;;;;;;5053083;28;20028;-87
2022/03/26 05:08:33;;;;;;;43.03;24.35;;;14.20;57.50;;;;;;5052699;28;20053;-87
2022/03/26 05:10:59;;;;;;;43.47;25.35;;;14.20;57.40;;;;;;5053026;28;20021;-87
2022/03/26 05:13:26;;;;;;;44.88;27.85;;;14.20;57.40;;;;;;5052699;28;20025;-88
2022/03/26 05:15:51;;;;;;;46.83;25.80;;;14.20;57.90;;;;;;5053462;28;20110;-88
2022/03/26 05:18:17;;;;;;;43.42;25.45;;;14.10;57.30;;;;;;5052731;28;20056;-87
2022/03/26 05:20:43;;;;;;;43.00;25.80;;;14.10;57.30;;;;;;5053210;28;20025;-87
2022/03/26 05:23:09;;;;;;;43.97;25.90;;;14.10;57.20;;;;;;5052595;28;20035;-87
2022/03/26 05:25:36;;;;;;;41.90;26.67;;;14.10;57.20;;;;;;5053090;28;20059;-86
2022/03/26 05:28:02;;;;;;;48.10;27.60;;;14.10;57.30;;;;;;5052984;28;20051;-88
2022/03/26 05:30:28;;;;;;;42.15;26.75;;;14.00;57.40;;;;;;5052745;28;20099;-86
2022/03/26 05:32:54;;;;;;;49.05;29.20;;;14.00;57.50;;;;;;5052582;28;20113;-85
2022/03/26 05:35:19;;;;;;;49.55;30.80;;;14.00;57.60;;;;;;5052678;28;20075;-85
2022/03/26 05:37:47;;;;;;;50.88;30.83;;;13.80;57.50;;;;;;5052883;28;20103;-85
2022/03/26 05:40:16;;;;;;;44.42;27.25;;;13.70;57.80;;;;;;5052016;28;20414;-86
2022/03/26 05:42:43;;;;;;;45.35;28.48;;;13.70;57.90;;;;;;5040193;28;20068;-86
2022/03/26 05:45:09;;;;;;;46.90;27.52;;;13.70;58.00;;;;;;5052537;28;20025;-86
2022/03/26 05:47:37;;;;;;;48.25;30.75;;;13.70;58.10;;;;;;5052772;28;20033;-85
2022/03/26 05:50:05;;;;;;;49.53;30.63;;;13.60;58.20;;;;;;5052623;28;20036;-85
2022/03/26 05:52:30;;;;;;;55.00;32.17;;;13.60;58.30;;;;;;5052726;28;20025;-86
2022/03/26 05:54:56;;;;;;;43.25;28.00;;;13.60;58.30;;;;;;5052744;28;20029;-85
2022/03/26 05:57:22;;;;;;;48.22;29.65;;;13.60;58.40;;;;;;5052511;28;20384;-86
2022/03/26 05:59:48;;;;;;;51.30;31.65;;;13.50;58.40;;;;;;5056549;28;20376;-87
2022/03/26 06:02:14;;;;;;;46.45;29.83;;;13.60;58.60;;;;;;5056499;28;20044;-87
2022/03/26 06:04:44;;;;;;;45.35;28.05;;;13.50;58.70;;;;;;5056500;28;20028;-87
2022/03/26 06:07:10;;;;;;;47.10;29.40;;;13.60;58.80;;;;;;5052944;28;20032;-87
2022/03/26 06:09:36;;;;;;;51.75;29.40;;;13.60;58.70;;;;;;5056312;28;20045;-86
2022/03/26 06:12:03;;;;;;;42.03;26.02;;;13.60;58.60;;;;;;5056397;28;20460;-86
2022/03/26 06:14:29;;;;;;;43.95;26.83;;;13.70;58.80;;;;;;5056671;28;20022;-86
2022/03/26 06:16:55;;;;;;;53.55;32.00;;;13.70;58.80;;;;;;5056016;28;20086;-86
2022/03/26 06:19:21;;;;;;;47.78;28.88;;;13.70;58.70;;;;;;5055466;28;20481;-86
2022/03/26 06:21:47;;;;;;;48.97;29.75;;;13.70;58.80;;;;;;5056456;28;20112;-87
2022/03/26 06:24:13;;;;;;;46.63;29.42;;;13.80;58.90;;;;;;5056470;28;20033;-87
2022/03/26 06:26:39;;;;;;;52.47;31.58;;;13.80;58.90;;;;;;5056361;28;20479;-87
2022/03/26 06:29:05;;;;;;;53.60;31.48;;;13.80;59.00;;;;;;5055788;28;20049;-87
2022/03/26 06:31:31;;;;;;;53.70;32.42;;;13.80;59.10;;;;;;5056050;28;20029;-87
2022/03/26 06:33:57;;;;;;;53.45;32.33;;;13.80;59.20;;;;;;5056230;28;20411;-86
2022/03/26 06:36:23;;;;;;;54.45;33.05;;;13.80;59.20;;;;;;5055885;28;20029;-87
2022/03/26 06:38:48;;;;;;;61.30;34.00;;;13.80;59.10;;;;;;5055272;28;20029;-87
2022/03/26 06:41:15;;;;;;;54.25;31.48;;;13.80;59.10;;;;;;5056273;28;20048;-86
2022/03/26 06:43:42;;;;;;;48.72;30.75;;;13.80;59.10;;;;;;5055736;28;20108;-86
2022/03/26 06:46:08;;;;;;;53.10;32.47;;;13.80;59.10;;;;;;5055401;28;20067;-86
2022/03/26 06:48:34;;;;;;;50.42;30.83;;;13.90;59.70;;;;;;5055834;28;20025;-85
2022/03/26 06:51:02;;;;;;;51.97;32.05;;;13.90;59.10;;;;;;5055555;28;20100;-86
2022/03/26 06:53:29;;;;;;;54.88;32.17;;;14.00;59.10;;;;;;5055935;28;20457;-86
2022/03/26 06:55:55;;;;;;;52.05;30.75;;;14.10;59.00;;;;;;5056163;28;20021;-87
2022/03/26 06:58:21;;;;;;;52.58;31.67;;;14.10;59.00;;;;;;5056236;28;20123;-87
2022/03/26 07:00:46;;;;;;;56.55;33.55;;;14.20;59.00;;;;;;5055857;28;20380;-87
2022/03/26 07:03:12;;;;;;;51.67;33.30;;;14.20;59.20;;;;;;5056184;28;20372;-87
2022/03/26 07:05:37;;;;;;;52.10;32.05;;;14.20;59.90;;;;;;5055875;28;20461;-85
2022/03/26 07:08:04;;;;;;;58.65;35.10;;;14.20;60.50;;;;;;5055692;28;20041;-86
2022/03/26 07:10:29;;;;;;;51.75;33.33;;;14.20;61.00;;;;;;5055420;28;20028;-86
2022/03/26 07:12:55;;;;;;;53.45;33.38;;;14.20;61.30;;;;;;5056024;28;20017;-85
2022/03/26 07:15:21;;;;;;;50.85;31.85;;;14.20;61.70;;;;;;5055890;28;20495;-86
2022/03/26 07:17:46;;;;;;;53.85;31.85;;;14.30;61.70;;;;;;5056494;28;20124;-87
2022/03/26 07:20:14;;;;;;;51.45;31.80;;;14.30;61.50;;;;;;5054869;28;20025;-87
2022/03/26 07:22:41;;;;;;;52.88;31.58;;;14.30;61.30;;;;;;5055134;28;20029;-87
2022/03/26 07:25:07;;;;;;;55.47;32.35;;;14.30;61.20;;;;;;5055377;28;20029;-87
2022/03/26 07:27:34;;;;;;;48.85;31.42;;;14.30;62.00;;;;;;5055492;28;20025;-87
2022/03/26 07:30:00;;;;;;;53.03;32.53;;;14.30;62.40;;;;;;5055279;28;20353;-87
2022/03/26 07:32:27;;;;;;;52.55;32.10;;;14.40;63.10;;;;;;5055595;28;20091;-87
2022/03/26 07:34:53;;;;;;;53.55;30.67;;;14.40;63.10;;;;;;5055501;28;20107;-88
2022/03/26 07:37:19;;;;;;;57.47;31.52;;;14.40;63.20;;;;;;5054958;28;20029;-87
2022/03/26 07:39:45;;;;;;;50.42;30.70;;;14.50;62.00;;;;;;5054793;28;20029;-88
2022/03/26 07:42:11;;;;;;;49.50;29.52;;;14.40;61.40;;;;;;5054730;28;20120;-88
2022/03/26 07:44:37;;;;;;;52.70;31.13;;;14.40;61.50;;;;;;5054845;28;20052;-86
2022/03/26 07:47:03;;;;;;;50.67;31.00;;;14.50;62.60;;;;;;5054005;28;20029;-86
2022/03/26 07:49:28;;;;;;;50.72;29.33;;;14.50;60.60;;;;;;5054874;28;20025;-88
2022/03/26 07:51:54;;;;;;;50.13;28.27;;;14.50;60.90;;;;;;5054799;28;20052;-88
2022/03/26 07:54:20;;;;;;;54.25;29.55;;;14.70;61.10;;;;;;5054829;28;20108;-88
2022/03/26 07:56:46;;;;;;;50.72;29.60;;;14.90;60.70;;;;;;5054625;28;20128;-88
2022/03/26 07:59:12;;;;;;;51.35;30.38;;;14.90;59.70;;;;;;5054863;28;20071;-88
2022/03/26 08:01:37;;;;;;;56.80;32.03;;;15.00;59.40;;;;;;5053988;28;20026;-88
2022/03/26 08:04:03;;;;;;;50.45;29.90;;;15.00;59.30;;;;;;5054484;28;20066;-87
2022/03/26 08:06:29;;;;;;;53.70;30.98;;;14.90;59.00;;;;;;5054220;28;20028;-88
2022/03/26 08:08:54;;;;;;;55.03;30.80;;;15.00;59.20;;;;;;5054269;28;20048;-88
2022/03/26 08:11:20;;;;;;;52.63;31.25;;;15.00;59.20;;;;;;5054253;28;20501;-88
2022/03/26 08:13:46;;;;;;;51.70;29.75;;;15.00;58.90;;;;;;5053545;28;20036;-88
2022/03/26 08:16:11;;;;;;;54.70;30.92;;;15.00;59.70;;;;;;5054171;28;20036;-88
2022/03/26 08:18:37;;;;;;;52.67;29.65;;;15.00;59.40;;;;;;5053700;28;20472;-87
2022/03/26 08:21:03;;;;;;;51.72;28.75;;;15.10;59.50;;;;;;5053673;28;20079;-87
2022/03/26 08:23:29;;;;;;;48.53;28.15;;;15.30;59.50;;;;;;5053746;28;20025;-87
2022/03/26 08:26:40;;;;;;;49.42;28.38;;;15.50;59.00;;;;;;5053461;28;20021;-87
2022/03/26 08:28:41;;;;;;;54.53;30.30;;;15.80;58.20;;;;;;5043245;28;20033;-88
2022/03/26 08:31:10;;;;;;;48.15;28.38;;;16.00;57.40;;;;;;5053233;28;20033;-87
2022/03/26 08:33:36;;;;;;;53.65;28.98;;;16.10;57.00;;;;;;5053791;28;20031;-88
2022/03/26 08:36:02;;;;;;;33.28;20.38;;;16.30;57.90;;;;;;5053725;28;20136;-88
2022/03/26 08:38:28;;;;;;;30.17;17.45;;;16.40;57.80;;;;;;5053387;28;20547;-87
2022/03/26 08:40:54;;;;;;;29.23;17.17;;;16.50;57.00;;;;;;5054079;28;20025;-88
2022/03/26 08:43:20;;;;;;;35.25;17.45;;;16.50;58.10;;;;;;5053149;28;20044;-88
2022/03/26 08:45:46;;;;;;;27.23;15.43;;;16.50;56.60;;;;;;5053739;28;20029;-87
2022/03/26 08:48:12;;;;;;;22.75;13.13;;;16.50;57.10;;;;;;5053389;28;20036;-88
2022/03/26 08:50:37;;;;;;;28.55;16.77;;;16.40;57.10;;;;;;5053538;28;20029;-87
2022/03/26 08:53:03;;;;;;;34.50;17.45;;;16.40;57.50;;;;;;5053556;28;20021;-88
2022/03/26 08:55:29;;;;;;;33.38;18.35;;;16.40;57.50;;;;;;5053617;28;20036;-88
2022/03/26 08:57:57;;;;;;;29.95;17.48;;;16.40;57.50;;;;;;5053400;28;20033;-87
2022/03/26 09:00:22;;;;;;;37.22;19.77;;;16.50;58.30;;;;;;5053722;28;20055;-88
2022/03/26 09:02:48;;;;;;;32.00;18.52;;;16.50;57.80;;;;;;5053172;28;20057;-88
2022/03/26 09:05:14;;;;;;;33.85;17.67;;;16.60;58.60;;;;;;5053432;28;20025;-87
2022/03/26 09:07:40;;;;;;;38.88;18.27;;;16.90;58.30;;;;;;5053371;28;20472;-87
2022/03/26 09:10:06;;;;;;;32.17;18.40;;;16.90;57.70;;;;;;5053804;28;20480;-87
2022/03/26 09:12:32;;;;;;;29.60;16.33;;;16.90;57.60;;;;;;5052005;28;20044;-88
2022/03/26 09:14:58;;;;;;;25.88;16.35;;;16.90;57.70;;;;;;5052970;28;20017;-88
2022/03/26 09:17:24;;;;;;;22.13;13.30;;;17.00;57.50;;;;;;5052973;28;20388;-88
2022/03/26 09:19:49;;;;;;;19.95;11.43;;;17.10;58.80;;;;;;5053023;28;20490;-87
2022/03/26 09:22:15;;;;;;;19.83;11.98;;;17.40;57.80;;;;;;5053143;28;20036;-87
2022/03/26 09:24:42;;;;;;;22.27;11.50;;;17.40;57.70;;;;;;5053549;28;20487;-87
2022/03/26 09:27:08;;;;;;;19.73;11.43;;;17.40;58.20;;;;;;5052611;28;20069;-88
2022/03/26 09:29:34;;;;;;;21.00;10.65;;;17.60;57.90;;;;;;5053022;28;20048;-88
2022/03/26 09:32:00;;;;;;;23.15;12.50;;;17.60;58.30;;;;;;5053265;28;20052;-88
2022/03/26 09:34:26;;;;;;;19.60;11.43;;;17.80;58.10;;;;;;5052850;28;20502;-88
2022/03/26 09:36:53;;;;;;;21.20;11.55;;;17.90;56.90;;;;;;5052923;28;20120;-88
2022/03/26 09:39:19;;;;;;;26.83;13.98;;;18.10;57.40;;;;;;5052717;28;20108;-88
2022/03/26 09:41:47;;;;;;;27.45;14.38;;;18.30;56.70;;;;;;5052675;28;20025;-88
2022/03/26 09:44:13;;;;;;;25.17;12.40;;;18.40;55.80;;;;;;5052474;28;20374;-88
2022/03/26 09:46:39;;;;;;;19.83;12.13;;;18.30;56.70;;;;;;5052614;28;20036;-89
2022/03/26 09:49:06;;;;;;;19.02;10.65;;;18.40;55.60;;;;;;5051863;28;20025;-89
2022/03/26 09:51:32;;;;;;;17.70;9.60;;;18.50;56.00;;;;;;5052749;28;20041;-89
2022/03/26 09:53:58;;;;;;;18.75;10.95;;;18.60;56.10;;;;;;5052721;28;20021;-88
2022/03/26 09:56:25;;;;;;;20.55;11.93;;;18.70;55.70;;;;;;5052331;28;20476;-89
2022/03/26 09:58:52;;;;;;;15.25;10.50;;;18.70;55.50;;;;;;5052612;28;20036;-89
2022/03/26 10:01:19;;;;;;;16.20;10.55;;;18.70;55.70;;;;;;5052369;28;20100;-89
2022/03/26 10:04:13;;;;;;;14.63;8.55;;;18.70;55.90;;;;;;5052721;28;20038;-89
2022/03/26 10:06:50;;;;;;;13.00;8.13;;;18.80;56.30;;;;;;5052482;28;20040;-89
2022/03/26 10:09:26;;;;;;;11.85;7.55;;;19.00;55.20;;;;;;5052306;28;20053;-89
2022/03/26 10:11:59;;;;;;;11.98;7.13;;;18.90;54.50;;;;;;5051232;28;20553;-89
2022/03/26 10:14:39;;;;;;;15.25;8.13;;;18.90;54.70;;;;;;5052582;28;20033;-89
2022/03/26 10:17:31;;;;;;;15.63;9.40;;;18.90;55.80;;;;;;5051874;28;20100;-88
2022/03/26 10:20:10;;;;;;;13.98;9.35;;;19.00;54.40;;;;;;5052447;28;20111;-89
2022/03/26 10:22:44;;;;;;;14.95;8.95;;;19.00;54.70;;;;;;5052290;28;20372;-89
2022/03/26 10:25:15;;;;;;;19.58;8.70;;;19.10;54.60;;;;;;5052209;28;20417;-89
2022/03/26 10:27:44;;;;;;;14.68;9.73;;;19.10;54.70;;;;;;5052623;28;20025;-89
2022/03/26 10:30:15;;;;;;;15.18;9.10;;;19.10;54.30;;;;;;5052108;28;20033;-89
2022/03/26 10:32:48;;;;;;;16.30;8.88;;;19.30;53.90;;;;;;5052341;28;20024;-88
2022/03/26 10:35:21;;;;;;;11.13;7.47;;;19.40;53.20;;;;;;5051801;28;20553;-87
2022/03/26 10:37:56;;;;;;;11.48;6.00;;;19.50;54.30;;;;;;5039669;28;20072;-88
2022/03/26 10:40:30;;;;;;;14.65;8.82;;;19.70;53.10;;;;;;5050922;28;20037;-87
2022/03/26 10:42:58;;;;;;;11.63;6.82;;;19.90;53.40;;;;;;5052416;28;20033;-87
2022/03/26 10:45:24;;;;;;;12.30;7.07;;;20.10;53.60;;;;;;5054199;28;20100;-87
2022/03/26 10:47:54;;;;;;;10.98;7.13;;;20.40;52.00;;;;;;5056210;28;20032;-88
2022/03/26 10:50:19;;;;;;;12.30;7.53;;;20.60;51.60;;;;;;5055298;28;20155;-87
2022/03/26 10:52:45;;;;;;;9.80;7.63;;;20.50;51.60;;;;;;5056376;28;20119;-88
2022/03/26 10:55:17;;;;;;;10.75;7.00;;;20.70;52.00;;;;;;5055395;28;20231;-87
2022/03/26 10:57:47;;;;;;;14.23;7.75;;;20.90;50.50;;;;;;5056301;28;20041;-88
2022/03/26 11:00:17;;;;;;;14.52;7.18;;;21.10;50.50;;;;;;5055268;28;20025;-88
2022/03/26 11:02:46;;;;;;;10.93;6.22;;;20.90;49.60;;;;;;5049723;28;20033;-88
2022/03/26 11:05:12;;;;;;;8.20;5.10;;;21.00;48.60;;;;;;5054949;28;20130;-88
2022/03/26 11:07:41;;;;;;;20.48;6.68;;;21.10;49.70;;;;;;5055830;28;20049;-88
2022/03/26 11:10:08;;;;;;;10.60;5.30;;;21.20;47.60;;;;;;5055453;28;20025;-88
2022/03/26 11:12:36;;;;;;;8.50;5.18;;;20.90;48.90;;;;;;5055597;28;20064;-88
2022/03/26 11:15:06;;;;;;;14.73;7.90;;;21.10;47.80;;;;;;5055107;28;20036;-89
2022/03/26 11:17:39;;;;;;;15.45;7.00;;;21.20;45.80;;;;;;5054146;28;20128;-89
2022/03/26 11:20:09;;;;;;;25.77;9.27;;;21.00;45.70;;;;;;5055081;28;20495;-86
2022/03/26 11:23:08;;;;;;;17.45;8.27;;;20.80;45.50;;;;;;5054693;28;20021;-89
2022/03/26 11:25:51;;;;;;;15.23;7.65;;;20.40;46.50;;;;;;5054951;28;20032;-88
2022/03/26 11:28:33;;;;;;;17.88;7.82;;;20.40;46.70;;;;;;5055283;28;20025;-89
2022/03/26 11:31:17;;;;;;;15.13;8.13;;;20.70;46.30;;;;;;5055288;28;20044;-89
2022/03/26 11:33:47;;;;;;;14.32;7.68;;;21.10;46.20;;;;;;5055547;28;20112;-89
2022/03/26 11:36:17;;;;;;;20.40;9.90;;;21.30;45.10;;;;;;5054457;28;20087;-89
2022/03/26 11:38:53;;;;;;;15.70;7.72;;;21.20;44.50;;;;;;5054763;28;20476;-89
2022/03/26 11:41:34;;;;;;;14.43;8.27;;;21.30;45.90;;;;;;5055020;28;20495;-90
2022/03/26 11:44:01;;;;;;;16.27;9.18;;;21.40;44.80;;;;;;5055187;28;20021;-89
2022/03/26 11:52:20;;;;;;;18.50;9.68;;;21.10;45.00;;;;;;5053083;28;20079;-89
2022/03/26 11:54:56;;;;;;;12.88;8.35;;;20.90;45.20;;;;;;5054821;28;20040;-89
2022/03/26 11:57:26;;;;;;;19.35;10.05;;;21.00;46.00;;;;;;5053637;28;20041;-89
2022/03/26 11:59:53;;;;;;;18.10;8.77;;;21.10;46.00;;;;;;5054444;28;20028;-88
2022/03/26 12:02:23;;;;;;;16.23;9.00;;;21.20;44.80;;;;;;5054528;28;20392;-88
2022/03/26 12:04:51;;;;;;;15.27;8.30;;;21.20;44.90;;;;;;5054076;28;20033;-89
2022/03/26 12:07:18;;;;;;;14.70;7.68;;;21.20;45.40;;;;;;5054745;28;20115;-88
2022/03/26 12:09:44;;;;;;;13.48;7.35;;;21.20;45.00;;;;;;5054650;28;20045;-88
2022/03/26 12:12:13;;;;;;;17.38;8.27;;;21.30;45.50;;;;;;5054414;28;20124;-89
2022/03/26 12:15:05;;;;;;;16.42;8.15;;;21.60;45.20;;;;;;5054486;28;20035;-89
2022/03/26 12:17:46;;;;;;;11.90;6.85;;;21.80;44.70;;;;;;5054355;28;20048;-88
2022/03/26 12:20:31;;;;;;;13.60;7.97;;;22.00;44.40;;;;;;5053886;28;20087;-89
2022/03/26 12:23:11;;;;;;;14.48;6.80;;;22.10;43.80;;;;;;5041493;28;20515;-89
2022/03/26 12:25:42;;;;;;;12.32;5.95;;;21.70;43.10;;;;;;5039465;28;20024;-89
2022/03/26 12:28:07;;;;;;;13.52;7.22;;;21.20;43.90;;;;;;5053693;28;20099;-89
2022/03/26 12:30:33;;;;;;;13.18;7.38;;;21.10;44.60;;;;;;5054157;28;20039;-89
2022/03/26 12:32:59;;;;;;;12.88;6.63;;;21.20;46.00;;;;;;5054099;28;20021;-88
2022/03/26 12:35:26;;;;;;;12.98;6.93;;;21.40;44.60;;;;;;5054091;28;20021;-89